Time;durP1;ratioP1;P1;durP2;ratioP2;P2;SDS_P1;SDS_P2;PMS_P1;PMS_P2;Temp;Humidity;BMP_temperature;BMP_pressure;BME280_temperature;BME280_humidity;BME280_pressure;Samples;Min_cycle;Max_cycle;Signal;HPM_P1;HPM_P2
2023/12/29 00:00:14;;;;;;;24.85;3.55;;;;;;;;;;4975630;28;20052;-51
2023/12/29 00:03:01;;;;;;;27.83;3.97;;;;;;;;;;4978174;28;20054;-50
2023/12/29 00:05:54;;;;;;;29.08;3.47;;;;;;;;;;4980260;28;20054;-53
2023/12/29 00:08:42;;;;;;;28.05;3.55;;;;;;;;;;4977883;28;20054;-68
2023/12/29 00:11:35;;;;;;;34.55;3.85;;;;;;;;;;4982783;28;20050;-59
2023/12/29 00:14:22;;;;;;;42.08;5.18;;;;;;;;;;4981299;28;20065;-58
2023/12/29 00:17:16;;;;;;;39.10;4.57;;;;;;;;;;4981356;28;20050;-60
2023/12/29 00:20:04;;;;;;;42.35;4.32;;;;;;;;;;4979463;28;20066;-60
2023/12/29 00:23:07;;;;;;;34.92;3.85;;;;;;;;;;4978541;28;20533;-60
2023/12/29 00:26:01;;;;;;;38.83;4.50;;;;;;;;;;4979266;28;20062;-59
2023/12/29 00:28:40;;;;;;;31.08;4.00;;;;;;;;;;4981185;28;20433;-68
2023/12/29 00:31:07;;;;;;;27.10;4.18;;;;;;;;;;4979846;28;20065;-59
2023/12/29 00:33:34;;;;;;;37.20;4.50;;;;;;;;;;4977256;28;20055;-58
2023/12/29 00:36:08;;;;;;;50.08;5.35;;;;;;;;;;4978039;28;21113;-59
2023/12/29 00:38:35;;;;;;;;;;;;;;;;;;4980852;28;20232;-60
2023/12/29 00:41:09;;;;;;;60.95;5.57;;;;;;;;;;4980052;28;20353;-59
2023/12/29 00:43:37;;;;;;;53.15;6.40;;;;;;;;;;4979667;28;20060;-59
2023/12/29 00:46:07;;;;;;;50.97;5.78;;;;;;;;;;4977502;28;20081;-54
2023/12/29 00:48:40;;;;;;;60.97;5.90;;;;;;;;;;4979807;28;20050;-54
2023/12/29 00:51:08;;;;;;;49.47;6.75;;;;;;;;;;4979640;28;20078;-56
2023/12/29 00:53:41;;;;;;;66.70;6.28;;;;;;;;;;4980248;28;20133;-55
2023/12/29 00:56:12;;;;;;;36.83;5.45;;;;;;;;;;4978027;28;20058;-59
2023/12/29 00:58:39;;;;;;;49.50;5.55;;;;;;;;;;4978191;28;20084;-62
2023/12/29 01:01:13;;;;;;;55.28;6.80;;;;;;;;;;4979026;28;20112;-62
2023/12/29 01:03:40;;;;;;;53.65;5.25;;;;;;;;;;4975496;28;20094;-62
2023/12/29 01:06:15;;;;;;;74.10;5.78;;;;;;;;;;4979924;28;20054;-65
2023/12/29 01:08:42;;;;;;;49.42;5.82;;;;;;;;;;4981411;28;20054;-62
2023/12/29 01:11:10;;;;;;;55.17;5.40;;;;;;;;;;4979962;28;20066;-62
2023/12/29 01:13:43;;;;;;;53.55;5.10;;;;;;;;;;4978500;28;20066;-63
2023/12/29 01:16:11;;;;;;;44.03;4.78;;;;;;;;;;4976845;28;20081;-59
2023/12/29 01:18:45;;;;;;;56.90;5.18;;;;;;;;;;4975984;28;20054;-60
2023/12/29 01:21:13;;;;;;;62.22;6.53;;;;;;;;;;4979549;28;20061;-59
2023/12/29 01:23:40;;;;;;;38.83;5.43;;;;;;;;;;4978332;28;20172;-60
2023/12/29 01:26:20;;;;;;;51.42;5.65;;;;;;;;;;4980725;28;20132;-60
2023/12/29 01:28:47;;;;;;;62.78;6.07;;;;;;;;;;4977234;28;20050;-60
2023/12/29 01:31:21;;;;;;;59.97;6.18;;;;;;;;;;4976944;28;20054;-60
2023/12/29 01:33:49;;;;;;;;;;;;;;;;;;4976761;28;20066;-60
2023/12/29 01:36:42;;;;;;;61.83;5.47;;;;;;;;;;4976880;28;19932;-58
2023/12/29 01:39:36;;;;;;;56.42;5.85;;;;;;;;;;4976130;28;20068;-59
2023/12/29 01:42:24;;;;;;;39.90;4.50;;;;;;;;;;4979507;28;20146;-64
2023/12/29 01:45:22;;;;;;;54.45;5.13;;;;;;;;;;4976470;28;20054;-64
2023/12/29 01:48:23;;;;;;;26.98;3.35;;;;;;;;;;4972109;28;20112;-64
2023/12/29 01:51:17;;;;;;;31.60;4.57;;;;;;;;;;4977967;28;20058;-64
2023/12/29 01:54:05;;;;;;;20.67;2.65;;;;;;;;;;4979249;28;20058;-60
2023/12/29 01:56:59;;;;;;;21.55;3.10;;;;;;;;;;4979397;28;20054;-53
2023/12/29 01:59:48;;;;;;;28.40;3.30;;;;;;;;;;4979005;28;20066;-47
2023/12/29 02:02:40;;;;;;;48.40;4.88;;;;;;;;;;4979981;28;20065;-50
2023/12/29 02:05:29;;;;;;;32.30;3.85;;;;;;;;;;4974469;28;20058;-47
2023/12/29 02:08:23;;;;;;;45.10;4.28;;;;;;;;;;4977338;28;20164;-48
2023/12/29 02:11:13;;;;;;;49.05;5.43;;;;;;;;;;4979022;28;20054;-60
2023/12/29 02:14:06;;;;;;;34.38;4.57;;;;;;;;;;4976980;28;20086;-59
2023/12/29 02:16:56;;;;;;;49.05;4.82;;;;;;;;;;4975820;28;20054;-59
2023/12/29 02:19:50;;;;;;;64.40;5.35;;;;;;;;;;4974519;28;20060;-59
2023/12/29 02:22:38;;;;;;;38.88;5.97;;;;;;;;;;4977056;28;20509;-58
2023/12/29 02:25:38;;;;;;;53.20;4.90;;;;;;;;;;4977502;28;20086;-59
2023/12/29 02:28:26;;;;;;;58.42;5.65;;;;;;;;;;4979083;28;20473;-60
2023/12/29 02:31:21;;;;;;;53.05;6.45;;;;;;;;;;4975751;28;20136;-59
2023/12/29 02:34:10;;;;;;;51.85;5.32;;;;;;;;;;4973981;28;20066;-59
2023/12/29 02:37:03;;;;;;;53.67;4.50;;;;;;;;;;4975550;28;20046;-58
2023/12/29 02:39:50;;;;;;;53.83;5.78;;;;;;;;;;4977796;28;20132;-67
2023/12/29 02:42:50;;;;;;;53.65;6.20;;;;;;;;;;4977561;28;20061;-68
2023/12/29 02:45:37;;;;;;;69.93;5.53;;;;;;;;;;4977293;28;20066;-68
2023/12/29 02:48:31;;;;;;;62.03;6.25;;;;;;;;;;4975511;28;20061;-68
2023/12/29 02:51:19;;;;;;;62.35;6.95;;;;;;;;;;4976210;28;20046;-59
2023/12/29 02:54:12;;;;;;;72.50;5.57;;;;;;;;;;4977112;28;20064;-55
2023/12/29 02:56:59;;;;;;;65.03;6.32;;;;;;;;;;4975843;28;20042;-52
2023/12/29 02:59:54;;;;;;;57.17;6.97;;;;;;;;;;4978346;28;20502;-54
2023/12/29 03:02:47;;;;;;;61.70;6.20;;;;;;;;;;4977837;28;20063;-57
2023/12/29 03:05:41;;;;;;;62.83;5.88;;;;;;;;;;4975933;28;20058;-56
2023/12/29 03:08:29;;;;;;;62.50;5.85;;;;;;;;;;4974213;28;20054;-63
2023/12/29 03:11:22;;;;;;;45.72;6.68;;;;;;;;;;4975796;28;20065;-63
2023/12/29 03:14:10;;;;;;;50.75;6.13;;;;;;;;;;4974218;28;20489;-63
2023/12/29 03:17:03;;;;;;;49.20;6.07;;;;;;;;;;4978070;28;20054;-64
2023/12/29 03:19:51;;;;;;;57.95;7.57;;;;;;;;;;4972098;28;20133;-56
2023/12/29 03:22:44;;;;;;;65.63;5.90;;;;;;;;;;4974969;28;20124;-60
2023/12/29 03:25:38;;;;;;;59.45;5.85;;;;;;;;;;4975887;28;21127;-60
2023/12/29 03:28:33;;;;;;;64.70;6.25;;;;;;;;;;4975355;28;20466;-60
2023/12/29 03:31:20;;;;;;;69.28;6.55;;;;;;;;;;4978263;28;20523;-60
2023/12/29 03:34:13;;;;;;;76.55;6.57;;;;;;;;;;4978040;28;20066;-58
2023/12/29 03:37:07;;;;;;;68.72;5.88;;;;;;;;;;4977725;28;20141;-63
2023/12/29 03:39:55;;;;;;;59.42;7.35;;;;;;;;;;4981297;28;20100;-63
2023/12/29 03:42:48;;;;;;;76.35;6.03;;;;;;;;;;4978826;28;20629;-63
2023/12/29 03:45:36;;;;;;;77.00;8.65;;;;;;;;;;4980157;28;20062;-63
2023/12/29 03:48:29;;;;;;;82.03;7.88;;;;;;;;;;4975885;28;20144;-62
2023/12/29 03:51:17;;;;;;;66.72;6.95;;;;;;;;;;4982408;28;20498;-63
2023/12/29 03:54:12;;;;;;;73.60;8.23;;;;;;;;;;4983420;28;20117;-63
2023/12/29 03:57:05;;;;;;;75.43;7.72;;;;;;;;;;4983620;28;20811;-63
2023/12/29 04:00:00;;;;;;;74.22;7.93;;;;;;;;;;4983977;28;20074;-63
2023/12/29 04:02:47;;;;;;;85.25;7.80;;;;;;;;;;4981732;28;20103;-64
2023/12/29 04:05:40;;;;;;;81.20;6.90;;;;;;;;;;4976532;28;20069;-63
2023/12/29 04:08:27;;;;;;;78.78;7.78;;;;;;;;;;4975707;28;20069;-63
2023/12/29 04:11:21;;;;;;;85.63;7.55;;;;;;;;;;4981302;28;20074;-63
2023/12/29 04:14:12;;;;;;;86.93;7.88;;;;;;;;;;4978872;28;20062;-64
2023/12/29 04:17:04;;;;;;;84.60;7.95;;;;;;;;;;4979066;28;20508;-67
2023/12/29 04:19:49;;;;;;;88.88;8.20;;;;;;;;;;4974532;28;20046;-58
2023/12/29 04:22:43;;;;;;;100.22;7.35;;;;;;;;;;4978285;28;20122;-60
2023/12/29 04:25:37;;;;;;;79.03;7.75;;;;;;;;;;4979414;28;20077;-60
2023/12/29 04:28:38;;;;;;;87.50;7.65;;;;;;;;;;4979187;28;20144;-60
2023/12/29 04:31:25;;;;;;;88.25;7.63;;;;;;;;;;4979339;28;20477;-60
2023/12/29 04:34:19;;;;;;;99.38;10.48;;;;;;;;;;4979559;28;21062;-60
2023/12/29 04:37:07;;;;;;;88.05;9.45;;;;;;;;;;4976171;28;20799;-60
2023/12/29 04:40:00;;;;;;;91.72;9.63;;;;;;;;;;4973245;28;20054;-60
2023/12/29 04:42:47;;;;;;;103.93;9.35;;;;;;;;;;4979681;28;20497;-60
2023/12/29 04:45:41;;;;;;;114.38;9.95;;;;;;;;;;4979129;28;20407;-63
2023/12/29 04:48:29;;;;;;;105.72;9.38;;;;;;;;;;4979505;28;20105;-60
2023/12/29 04:51:22;;;;;;;115.30;9.68;;;;;;;;;;4981104;28;20046;-60
2023/12/29 04:54:10;;;;;;;115.90;9.63;;;;;;;;;;4980185;28;20062;-60
2023/12/29 04:57:03;;;;;;;122.07;10.93;;;;;;;;;;4977142;28;20077;-60
2023/12/29 04:59:57;;;;;;;107.00;10.77;;;;;;;;;;4978962;28;20523;-60
2023/12/29 05:02:51;;;;;;;111.82;9.38;;;;;;;;;;4977972;28;20061;-61
2023/12/29 05:05:45;;;;;;;102.43;10.00;;;;;;;;;;4979317;28;20056;-60
2023/12/29 05:08:39;;;;;;;107.65;11.18;;;;;;;;;;4977368;28;20069;-60
2023/12/29 05:11:33;;;;;;;92.10;11.40;;;;;;;;;;4978452;28;20635;-67
2023/12/29 05:14:20;;;;;;;118.53;11.57;;;;;;;;;;4976641;28;20109;-63
2023/12/29 05:17:14;;;;;;;95.32;11.05;;;;;;;;;;4975709;28;20058;-55
2023/12/29 05:20:02;;;;;;;101.75;10.00;;;;;;;;;;4975939;28;20433;-56
2023/12/29 05:22:55;;;;;;;118.60;10.50;;;;;;;;;;4978247;28;20097;-56
2023/12/29 05:25:49;;;;;;;122.03;10.95;;;;;;;;;;4976871;28;20050;-54
2023/12/29 05:28:50;;;;;;;101.45;10.15;;;;;;;;;;4976880;28;20054;-55
2023/12/29 05:31:37;;;;;;;94.82;9.75;;;;;;;;;;4977128;28;20076;-59
2023/12/29 05:34:38;;;;;;;101.53;9.82;;;;;;;;;;4978256;28;20186;-59
2023/12/29 05:37:25;;;;;;;106.70;11.07;;;;;;;;;;4979114;28;20117;-60
2023/12/29 05:40:19;;;;;;;98.82;11.65;;;;;;;;;;4979039;28;20058;-57
2023/12/29 05:43:07;;;;;;;94.80;9.63;;;;;;;;;;4976711;28;21964;-53
2023/12/29 05:46:01;;;;;;;81.68;8.68;;;;;;;;;;4978658;28;20474;-56
2023/12/29 05:48:54;;;;;;;105.20;11.32;;;;;;;;;;4975083;28;20058;-56
2023/12/29 05:51:48;;;;;;;79.55;10.73;;;;;;;;;;4979084;28;20058;-57
2023/12/29 05:54:36;;;;;;;91.65;10.43;;;;;;;;;;4980483;28;20061;-56
2023/12/29 05:57:29;;;;;;;92.47;9.98;;;;;;;;;;4982563;28;20108;-55
2023/12/29 06:00:17;;;;;;;83.60;9.45;;;;;;;;;;4975984;28;20054;-67
2023/12/29 06:03:11;;;;;;;107.63;10.50;;;;;;;;;;4977713;28;20061;-67
2023/12/29 06:05:58;;;;;;;86.28;10.27;;;;;;;;;;4979279;28;20065;-67
2023/12/29 06:08:51;;;;;;;117.30;12.32;;;;;;;;;;4975743;28;20062;-63
2023/12/29 06:11:39;;;;;;;98.28;11.93;;;;;;;;;;4976862;28;20054;-64
2023/12/29 06:14:32;;;;;;;116.93;10.15;;;;;;;;;;4977219;28;20112;-60
2023/12/29 06:17:20;;;;;;;90.20;10.23;;;;;;;;;;4976446;28;20057;-60
2023/12/29 06:20:14;;;;;;;108.47;10.82;;;;;;;;;;4975966;28;20046;-59
2023/12/29 06:23:01;;;;;;;110.93;10.10;;;;;;;;;;4977382;28;20502;-59
2023/12/29 06:26:07;;;;;;;107.75;11.10;;;;;;;;;;4975356;28;20101;-59
2023/12/29 06:29:01;;;;;;;99.43;10.18;;;;;;;;;;4976608;28;20062;-67
2023/12/29 06:31:55;;;;;;;100.55;9.43;;;;;;;;;;4973993;28;20468;-67
2023/12/29 06:34:43;;;;;;;96.28;11.98;;;;;;;;;;4975777;28;20494;-69
2023/12/29 06:37:38;;;;;;;95.50;10.32;;;;;;;;;;4977885;28;20461;-59
2023/12/29 06:40:24;;;;;;;80.15;8.45;;;;;;;;;;4978662;28;20054;-59
2023/12/29 06:43:18;;;;;;;89.93;10.93;;;;;;;;;;4977462;28;20196;-59
2023/12/29 06:46:13;;;;;;;88.13;9.90;;;;;;;;;;4975221;28;20066;-59
2023/12/29 06:49:09;;;;;;;95.65;10.15;;;;;;;;;;4974897;28;20050;-59
2023/12/29 06:51:57;;;;;;;91.47;10.45;;;;;;;;;;4974830;28;20066;-59
2023/12/29 06:54:50;;;;;;;87.20;10.23;;;;;;;;;;4976204;28;20500;-60
2023/12/29 06:57:43;;;;;;;105.97;9.88;;;;;;;;;;4977786;28;20090;-58
2023/12/29 07:00:37;;;;;;;93.07;10.50;;;;;;;;;;4977525;28;20064;-56
2023/12/29 07:03:25;;;;;;;78.60;10.07;;;;;;;;;;4976717;28;20498;-59
2023/12/29 07:06:19;;;;;;;88.97;10.75;;;;;;;;;;4977616;28;20402;-53
2023/12/29 07:09:07;;;;;;;77.65;9.40;;;;;;;;;;4975899;28;20065;-62
2023/12/29 07:12:00;;;;;;;102.53;10.02;;;;;;;;;;4977860;28;20474;-63
2023/12/29 07:14:47;;;;;;;76.07;7.97;;;;;;;;;;4978625;28;20464;-62
2023/12/29 07:17:44;;;;;;;90.45;9.15;;;;;;;;;;4980470;28;20584;-62
2023/12/29 07:20:35;;;;;;;65.50;8.32;;;;;;;;;;4978387;28;20054;-63
2023/12/29 07:23:22;;;;;;;90.68;9.77;;;;;;;;;;4980067;28;20109;-62
2023/12/29 07:26:23;;;;;;;49.22;7.03;;;;;;;;;;4981768;28;20050;-59
2023/12/29 07:29:10;;;;;;;77.97;8.75;;;;;;;;;;4978439;28;20061;-58
2023/12/29 07:32:05;;;;;;;69.57;8.45;;;;;;;;;;4978960;28;20058;-59
2023/12/29 07:34:59;;;;;;;59.72;8.30;;;;;;;;;;4979941;28;20438;-60
2023/12/29 07:37:46;;;;;;;62.35;8.68;;;;;;;;;;4978256;28;20414;-47
2023/12/29 07:40:40;;;;;;;75.47;10.15;;;;;;;;;;4978990;28;20081;-47
2023/12/29 07:43:35;;;;;;;85.85;9.52;;;;;;;;;;4980310;28;20246;-49
2023/12/29 07:46:28;;;;;;;66.75;8.65;;;;;;;;;;4977002;28;20224;-48
2023/12/29 07:49:16;;;;;;;64.53;7.15;;;;;;;;;;4975845;28;20120;-51
2023/12/29 07:52:09;;;;;;;74.53;7.75;;;;;;;;;;4977283;28;20093;-52
2023/12/29 07:54:57;;;;;;;76.85;8.32;;;;;;;;;;4981480;28;20062;-55
2023/12/29 07:57:52;;;;;;;76.05;7.63;;;;;;;;;;4982186;28;20145;-55
2023/12/29 08:00:38;;;;;;;76.88;9.07;;;;;;;;;;4982526;28;20050;-55
2023/12/29 08:03:31;;;;;;;65.53;8.73;;;;;;;;;;4982238;28;20058;-63
2023/12/29 08:06:19;;;;;;;73.03;8.95;;;;;;;;;;4981212;28;20382;-46
2023/12/29 08:09:12;;;;;;;52.55;7.57;;;;;;;;;;4981968;28;20117;-47
2023/12/29 08:12:00;;;;;;;63.75;8.00;;;;;;;;;;4980432;28;20058;-47
2023/12/29 08:14:53;;;;;;;76.70;7.90;;;;;;;;;;4980531;28;20506;-46
2023/12/29 08:17:40;;;;;;;74.65;8.52;;;;;;;;;;4980881;28;20046;-47
2023/12/29 08:20:37;;;;;;;55.58;6.43;;;;;;;;;;4971106;28;20054;-67
2023/12/29 08:23:26;;;;;;;62.83;7.68;;;;;;;;;;4974225;28;20050;-54
2023/12/29 08:26:25;;;;;;;64.10;6.32;;;;;;;;;;4980378;28;20497;-52
2023/12/29 08:29:13;;;;;;;70.32;7.07;;;;;;;;;;4979471;28;20046;-53
2023/12/29 08:32:07;;;;;;;64.93;7.32;;;;;;;;;;4977441;28;20074;-60
2023/12/29 08:34:54;;;;;;;65.95;7.20;;;;;;;;;;4975755;28;20445;-57
2023/12/29 08:37:47;;;;;;;69.50;7.25;;;;;;;;;;4979781;28;20058;-59
2023/12/29 08:40:36;;;;;;;63.30;6.45;;;;;;;;;;4973211;28;20136;-57
2023/12/29 08:43:29;;;;;;;59.67;6.88;;;;;;;;;;4979041;28;20140;-58
2023/12/29 08:46:24;;;;;;;67.40;6.80;;;;;;;;;;4974288;28;20058;-58
2023/12/29 08:49:11;;;;;;;59.30;5.80;;;;;;;;;;4983947;28;20062;-60
2023/12/29 08:52:05;;;;;;;50.83;5.82;;;;;;;;;;4985742;28;20050;-59
2023/12/29 08:54:52;;;;;;;59.58;6.28;;;;;;;;;;4984879;28;20136;-48
2023/12/29 08:57:46;;;;;;;48.78;6.35;;;;;;;;;;4986542;28;20109;-47
2023/12/29 09:00:33;;;;;;;56.55;6.35;;;;;;;;;;4983848;28;20518;-48
2023/12/29 09:03:27;;;;;;;36.00;5.53;;;;;;;;;;4982274;28;20433;-47
2023/12/29 09:06:14;;;;;;;39.35;4.85;;;;;;;;;;4983351;28;20050;-49
2023/12/29 09:09:12;;;;;;;51.22;6.05;;;;;;;;;;4982223;28;20053;-60
2023/12/29 09:11:54;;;;;;;64.10;6.18;;;;;;;;;;4982156;28;20046;-60
2023/12/29 09:14:48;;;;;;;55.17;5.95;;;;;;;;;;4982489;28;20506;-58
2023/12/29 09:17:35;;;;;;;62.88;5.90;;;;;;;;;;4981718;28;20654;-58
2023/12/29 09:20:30;;;;;;;54.67;5.90;;;;;;;;;;4982082;28;20433;-58
2023/12/29 09:23:18;;;;;;;79.97;7.25;;;;;;;;;;4978835;28;20058;-60
2023/12/29 09:26:20;;;;;;;69.32;6.63;;;;;;;;;;4978068;28;20050;-63
2023/12/29 09:29:08;;;;;;;59.97;7.22;;;;;;;;;;4981343;28;20058;-56
2023/12/29 09:32:01;;;;;;;59.47;7.20;;;;;;;;;;4979675;28;20061;-46
2023/12/29 09:34:49;;;;;;;78.35;8.13;;;;;;;;;;4976279;28;20054;-48
2023/12/29 09:37:42;;;;;;;60.47;6.78;;;;;;;;;;4980260;28;20465;-48
2023/12/29 09:40:29;;;;;;;69.90;7.68;;;;;;;;;;4979079;28;20050;-51
2023/12/29 09:43:24;;;;;;;64.50;8.18;;;;;;;;;;4983759;28;20058;-52
2023/12/29 09:46:13;;;;;;;47.15;6.60;;;;;;;;;;4980188;28;20047;-48
2023/12/29 09:49:08;;;;;;;60.80;6.72;;;;;;;;;;4982027;28;20062;-63
2023/12/29 09:52:03;;;;;;;59.22;6.75;;;;;;;;;;4973556;28;20532;-63
2023/12/29 09:54:53;;;;;;;62.58;7.03;;;;;;;;;;4979740;28;20061;-63
2023/12/29 09:57:48;;;;;;;72.22;7.82;;;;;;;;;;4982386;28;20058;-63
2023/12/29 10:00:35;;;;;;;61.30;6.72;;;;;;;;;;4975084;28;20046;-63
2023/12/29 10:03:28;;;;;;;75.10;7.47;;;;;;;;;;4980744;28;20053;-63
2023/12/29 10:06:24;;;;;;;61.95;6.95;;;;;;;;;;4981220;28;20490;-59
2023/12/29 10:09:20;;;;;;;71.72;7.15;;;;;;;;;;4977139;28;20058;-59
2023/12/29 10:12:12;;;;;;;61.10;7.47;;;;;;;;;;4978851;28;20414;-58
2023/12/29 10:14:52;;;;;;;74.15;6.28;;;;;;;;;;4979114;28;20046;-57
2023/12/29 10:17:51;;;;;;;66.78;7.40;;;;;;;;;;4979928;28;20140;-59
2023/12/29 10:20:57;;;;;;;54.28;7.68;;;;;;;;;;4978761;28;20160;-60
2023/12/29 10:23:48;;;;;;;71.95;8.15;;;;;;;;;;4975343;28;20140;-60
2023/12/29 10:26:49;;;;;;;54.72;7.78;;;;;;;;;;4970567;28;20521;-62
2023/12/29 10:29:43;;;;;;;55.13;6.63;;;;;;;;;;4979222;28;20093;-63
2023/12/29 10:32:50;;;;;;;56.63;7.28;;;;;;;;;;4980816;28;20053;-64
2023/12/29 10:35:40;;;;;;;62.63;8.02;;;;;;;;;;4975696;28;20047;-63
2023/12/29 10:38:34;;;;;;;50.13;6.20;;;;;;;;;;4979397;28;20054;-62
2023/12/29 10:41:27;;;;;;;57.42;6.03;;;;;;;;;;4977216;28;21587;-55
2023/12/29 10:44:14;;;;;;;67.82;6.93;;;;;;;;;;4977535;28;20058;-53
2023/12/29 10:47:12;;;;;;;47.85;6.32;;;;;;;;;;4980650;28;20432;-55
2023/12/29 10:50:06;;;;;;;61.83;5.80;;;;;;;;;;4981491;28;20118;-54
2023/12/29 10:53:11;;;;;;;60.85;6.35;;;;;;;;;;4980363;28;20054;-56
2023/12/29 10:56:19;;;;;;;49.78;6.03;;;;;;;;;;4978690;28;20057;-56
2023/12/29 10:59:05;;;;;;;60.03;5.70;;;;;;;;;;4978500;28;20109;-62
2023/12/29 11:02:02;;;;;;;47.70;5.50;;;;;;;;;;4985128;28;20058;-59
2023/12/29 11:04:50;;;;;;;49.05;5.72;;;;;;;;;;4981873;28;20066;-59
2023/12/29 11:07:42;;;;;;;45.53;5.03;;;;;;;;;;4982588;28;20058;-60
2023/12/29 11:10:31;;;;;;;51.17;6.25;;;;;;;;;;4980404;28;20058;-59
2023/12/29 11:13:25;;;;;;;47.15;5.82;;;;;;;;;;4983672;28;20046;-58
2023/12/29 11:16:12;;;;;;;38.22;4.95;;;;;;;;;;4981177;28;20132;-58
2023/12/29 11:19:09;;;;;;;35.25;4.13;;;;;;;;;;4979244;28;20051;-62
2023/12/29 11:21:56;;;;;;;39.08;4.53;;;;;;;;;;4982733;28;20058;-67
2023/12/29 11:24:49;;;;;;;49.05;6.18;;;;;;;;;;4978499;28;20062;-68
2023/12/29 11:27:43;;;;;;;29.70;4.45;;;;;;;;;;4980152;28;20069;-67
2023/12/29 11:31:00;;;;;;;29.30;4.32;;;;;;;;;;4984838;28;20133;-69
2023/12/29 11:33:57;;;;;;;33.13;4.25;;;;;;;;;;4974559;28;20050;-68
2023/12/29 11:36:51;;;;;;;47.90;5.20;;;;;;;;;;4977691;28;20058;-67
2023/12/29 11:39:47;;;;;;;30.95;4.35;;;;;;;;;;4983634;28;20247;-63
2023/12/29 11:42:42;;;;;;;37.78;4.72;;;;;;;;;;4985779;28;20838;-63
2023/12/29 11:45:37;;;;;;;23.55;2.85;;;;;;;;;;4981259;28;20042;-63
2023/12/29 11:48:49;;;;;;;38.65;5.03;;;;;;;;;;4979910;28;20058;-62
2023/12/29 11:51:41;;;;;;;39.55;4.30;;;;;;;;;;4983301;28;20058;-63
2023/12/29 11:54:34;;;;;;;34.28;4.20;;;;;;;;;;4980284;28;20072;-58
2023/12/29 11:57:36;;;;;;;36.17;4.75;;;;;;;;;;4983711;28;20050;-60
2023/12/29 12:00:46;;;;;;;31.42;4.80;;;;;;;;;;4981709;28;20055;-60
2023/12/29 12:03:32;;;;;;;31.55;4.65;;;;;;;;;;4979114;28;20046;-60
2023/12/29 12:06:37;;;;;;;38.35;4.70;;;;;;;;;;4979187;28;20054;-59
2023/12/29 12:09:27;;;;;;;40.03;4.97;;;;;;;;;;4984573;28;20054;-60
2023/12/29 12:12:43;;;;;;;32.92;3.80;;;;;;;;;;4984869;28;20061;-55
2023/12/29 12:15:30;;;;;;;54.85;5.28;;;;;;;;;;4983078;28;20600;-58
2023/12/29 12:18:24;;;;;;;32.35;4.20;;;;;;;;;;4983259;28;20061;-57
2023/12/29 12:21:12;;;;;;;28.23;3.78;;;;;;;;;;4978516;28;20173;-60
2023/12/29 12:24:07;;;;;;;26.15;4.70;;;;;;;;;;4976749;28;20053;-60
2023/12/29 12:27:10;;;;;;;31.83;4.47;;;;;;;;;;4978564;28;20057;-61
2023/12/29 12:29:59;;;;;;;31.85;4.22;;;;;;;;;;4980383;28;20046;-68
2023/12/29 12:32:58;;;;;;;44.45;4.00;;;;;;;;;;4976822;28;20470;-67
2023/12/29 12:35:46;;;;;;;36.03;4.32;;;;;;;;;;4971320;28;20054;-68
2023/12/29 12:38:39;;;;;;;32.55;3.97;;;;;;;;;;4981910;28;20050;-67
2023/12/29 12:41:33;;;;;;;35.33;4.82;;;;;;;;;;4976615;28;20057;-57
2023/12/29 12:44:21;;;;;;;24.60;3.97;;;;;;;;;;4982497;28;20054;-62
2023/12/29 12:47:16;;;;;;;40.60;4.53;;;;;;;;;;4980459;28;20112;-62
2023/12/29 12:50:05;;;;;;;25.10;4.10;;;;;;;;;;4983276;28;20110;-62
2023/12/29 12:53:03;;;;;;;38.35;4.53;;;;;;;;;;4982448;28;20495;-62
2023/12/29 12:55:52;;;;;;;29.80;3.50;;;;;;;;;;4981548;28;20058;-62
2023/12/29 12:58:46;;;;;;;23.05;2.97;;;;;;;;;;4984874;28;20341;-59
2023/12/29 13:01:37;;;;;;;32.50;3.97;;;;;;;;;;4981522;28;20058;-57
2023/12/29 13:04:33;;;;;;;22.27;2.60;;;;;;;;;;4982847;28;20054;-57
2023/12/29 13:07:20;;;;;;;26.55;3.40;;;;;;;;;;4979074;28;20297;-59
2023/12/29 13:10:13;;;;;;;26.00;3.22;;;;;;;;;;4980253;28;20112;-62
2023/12/29 13:13:01;;;;;;;22.23;3.47;;;;;;;;;;4978404;28;20063;-59
2023/12/29 13:15:54;;;;;;;25.83;3.25;;;;;;;;;;4984541;28;20141;-58
2023/12/29 13:18:49;;;;;;;31.58;4.18;;;;;;;;;;4979094;28;20482;-61
2023/12/29 13:21:36;;;;;;;25.50;3.72;;;;;;;;;;4982768;28;20553;-58
2023/12/29 13:24:30;;;;;;;35.33;4.50;;;;;;;;;;4981689;28;20537;-57
2023/12/29 13:27:23;;;;;;;29.40;3.17;;;;;;;;;;4983080;28;20108;-63
2023/12/29 13:30:18;;;;;;;30.45;3.13;;;;;;;;;;4981158;28;20081;-63
2023/12/29 13:33:10;;;;;;;38.33;4.43;;;;;;;;;;4979306;28;20051;-62
2023/12/29 13:36:14;;;;;;;40.42;3.92;;;;;;;;;;4979123;28;20054;-62
2023/12/29 13:39:08;;;;;;;40.30;4.13;;;;;;;;;;4983825;28;20058;-59
2023/12/29 13:42:02;;;;;;;32.53;4.63;;;;;;;;;;4983360;28;20124;-57
2023/12/29 13:44:51;;;;;;;24.08;3.33;;;;;;;;;;4975061;28;20057;-59
2023/12/29 13:47:45;;;;;;;33.85;3.95;;;;;;;;;;4971806;28;20054;-59
2023/12/29 13:50:32;;;;;;;37.22;4.78;;;;;;;;;;4976740;28;20525;-59
2023/12/29 13:53:26;;;;;;;36.38;3.78;;;;;;;;;;4978172;28;20054;-60
2023/12/29 13:56:13;;;;;;;21.02;4.07;;;;;;;;;;4977169;28;20064;-55
2023/12/29 13:59:07;;;;;;;38.13;4.00;;;;;;;;;;4978389;28;20062;-54
2023/12/29 14:02:20;;;;;;;33.78;3.85;;;;;;;;;;4975566;28;20676;-56
2023/12/29 14:05:20;;;;;;;29.40;4.05;;;;;;;;;;4977575;28;20054;-60
2023/12/29 14:08:40;;;;;;;32.80;4.45;;;;;;;;;;4980166;28;20054;-62
2023/12/29 14:11:27;;;;;;;36.22;4.07;;;;;;;;;;4972900;28;20585;-60
2023/12/29 14:14:27;;;;;;;30.67;3.55;;;;;;;;;;4976308;28;20057;-60
2023/12/29 14:17:20;;;;;;;36.65;4.25;;;;;;;;;;4978732;28;20054;-61
2023/12/29 14:20:33;;;;;;;27.08;3.38;;;;;;;;;;4976142;28;20078;-59
2023/12/29 14:23:26;;;;;;;35.33;3.70;;;;;;;;;;4975471;28;20058;-60
2023/12/29 14:26:32;;;;;;;33.50;3.22;;;;;;;;;;4976633;28;20069;-48
2023/12/29 14:29:20;;;;;;;34.70;3.90;;;;;;;;;;4977312;28;20064;-48
2023/12/29 14:32:13;;;;;;;38.72;4.05;;;;;;;;;;4978059;28;20053;-53
2023/12/29 14:35:09;;;;;;;27.17;3.72;;;;;;;;;;4979118;28;20136;-67
2023/12/29 14:37:56;;;;;;;28.08;4.40;;;;;;;;;;4977899;28;20054;-62
2023/12/29 14:40:45;;;;;;;43.60;4.15;;;;;;;;;;4978841;28;20141;-62
2023/12/29 14:43:38;;;;;;;41.35;4.60;;;;;;;;;;4973329;28;20058;-63
2023/12/29 14:46:26;;;;;;;42.83;4.50;;;;;;;;;;4976233;28;20062;-62
2023/12/29 14:49:19;;;;;;;30.75;4.95;;;;;;;;;;4980704;28;20050;-62
2023/12/29 14:52:13;;;;;;;42.20;4.45;;;;;;;;;;4980055;28;20497;-62
2023/12/29 14:55:08;;;;;;;46.65;4.68;;;;;;;;;;4974039;28;20275;-62
2023/12/29 14:57:55;;;;;;;42.50;5.07;;;;;;;;;;4981107;28;20047;-62
2023/12/29 15:00:49;;;;;;;44.45;4.93;;;;;;;;;;4979694;28;20148;-62
2023/12/29 15:03:36;;;;;;;38.05;4.63;;;;;;;;;;4969901;28;20050;-60
2023/12/29 15:06:31;;;;;;;36.38;3.85;;;;;;;;;;4975487;28;20105;-62
2023/12/29 15:09:18;;;;;;;50.50;5.28;;;;;;;;;;4975375;28;20149;-64
2023/12/29 15:12:12;;;;;;;41.30;5.57;;;;;;;;;;4979273;28;20410;-62
2023/12/29 15:15:00;;;;;;;40.30;4.32;;;;;;;;;;4977190;28;20476;-63
2023/12/29 15:17:53;;;;;;;41.83;5.07;;;;;;;;;;4980407;28;20050;-63
2023/12/29 15:20:41;;;;;;;35.63;4.25;;;;;;;;;;4970863;28;20085;-62
2023/12/29 15:23:34;;;;;;;43.08;5.75;;;;;;;;;;4978392;28;20066;-63
2023/12/29 15:26:41;;;;;;;31.92;3.40;;;;;;;;;;4976945;28;20054;-62
2023/12/29 15:29:35;;;;;;;32.45;4.30;;;;;;;;;;4978223;28;20058;-63
2023/12/29 15:32:30;;;;;;;32.85;4.45;;;;;;;;;;4979654;28;20054;-49
2023/12/29 15:35:17;;;;;;;25.42;4.18;;;;;;;;;;4978481;28;20478;-59
2023/12/29 15:38:11;;;;;;;23.00;2.60;;;;;;;;;;4984591;28;20231;-59
2023/12/29 15:40:58;;;;;;;15.55;2.55;;;;;;;;;;4977252;28;20116;-59
2023/12/29 15:43:51;;;;;;;24.40;2.60;;;;;;;;;;4980324;28;20050;-59
2023/12/29 15:46:38;;;;;;;20.17;2.72;;;;;;;;;;4971992;28;20066;-60
2023/12/29 15:49:32;;;;;;;17.65;2.38;;;;;;;;;;4973902;28;20058;-55
2023/12/29 15:52:28;;;;;;;17.70;2.30;;;;;;;;;;4982788;28;20576;-55
2023/12/29 15:55:14;;;;;;;22.33;2.80;;;;;;;;;;4980258;28;20073;-56
2023/12/29 15:58:07;;;;;;;14.38;2.35;;;;;;;;;;4980016;28;20109;-55
2023/12/29 16:00:55;;;;;;;24.17;2.40;;;;;;;;;;4980699;28;20153;-60
2023/12/29 16:03:48;;;;;;;16.05;2.35;;;;;;;;;;4979110;28;20050;-55
2023/12/29 16:06:37;;;;;;;13.13;2.15;;;;;;;;;;4981656;28;20161;-53
2023/12/29 16:09:30;;;;;;;17.67;2.97;;;;;;;;;;4977962;28;23432;-54
2023/12/29 16:12:18;;;;;;;20.95;2.10;;;;;;;;;;4981529;28;20054;-55
2023/12/29 16:15:17;;;;;;;14.30;2.38;;;;;;;;;;4979243;28;20058;-55
2023/12/29 16:18:05;;;;;;;17.50;2.20;;;;;;;;;;4982387;28;20490;-68
2023/12/29 16:20:58;;;;;;;17.00;2.25;;;;;;;;;;4982887;28;20050;-67
2023/12/29 16:23:46;;;;;;;15.65;3.17;;;;;;;;;;4967155;28;20054;-68
2023/12/29 16:26:52;;;;;;;15.13;2.72;;;;;;;;;;4977734;28;20054;-68
2023/12/29 16:29:46;;;;;;;15.50;2.70;;;;;;;;;;4981446;28;20110;-62
2023/12/29 16:32:40;;;;;;;11.82;2.13;;;;;;;;;;4982739;28;20077;-60
2023/12/29 16:35:28;;;;;;;14.25;2.25;;;;;;;;;;4980798;28;20061;-59
2023/12/29 16:38:21;;;;;;;19.42;2.67;;;;;;;;;;4978808;28;20411;-59
2023/12/29 16:41:09;;;;;;;9.93;2.47;;;;;;;;;;4979171;28;20054;-59
2023/12/29 16:44:02;;;;;;;12.90;2.50;;;;;;;;;;4983082;28;20584;-59
2023/12/29 16:46:49;;;;;;;22.75;3.42;;;;;;;;;;4981746;28;20104;-59